sensor_id;sensor_type;location;lat;lon;timestamp;temperature;humidity
70830;SHT30;58451;51.550;7.208;2023-06-24T00:00:13;19.08;77.95
70830;SHT30;58451;51.550;7.208;2023-06-24T00:01:47;19.06;78.07
70830;SHT30;58451;51.550;7.208;2023-06-24T00:03:19;19.05;78.13
70830;SHT30;58451;51.550;7.208;2023-06-24T00:04:51;19.03;78.25
70830;SHT30;58451;51.550;7.208;2023-06-24T00:06:23;19.02;78.27
70830;SHT30;58451;51.550;7.208;2023-06-24T00:07:57;19.04;78.22
70830;SHT30;58451;51.550;7.208;2023-06-24T00:09:33;19.00;78.23
70830;SHT30;58451;51.550;7.208;2023-06-24T00:11:05;18.99;78.32
70830;SHT30;58451;51.550;7.208;2023-06-24T00:12:37;18.97;78.00
70830;SHT30;58451;51.550;7.208;2023-06-24T00:14:10;18.88;77.85
70830;SHT30;58451;51.550;7.208;2023-06-24T00:15:42;18.83;78.25
70830;SHT30;58451;51.550;7.208;2023-06-24T00:17:15;18.78;77.90
70830;SHT30;58451;51.550;7.208;2023-06-24T00:18:48;18.71;78.17
70830;SHT30;58451;51.550;7.208;2023-06-24T00:20:20;18.67;78.48
70830;SHT30;58451;51.550;7.208;2023-06-24T00:21:52;18.64;78.75
70830;SHT30;58451;51.550;7.208;2023-06-24T00:23:24;18.63;78.93
70830;SHT30;58451;51.550;7.208;2023-06-24T00:24:57;18.62;79.03
70830;SHT30;58451;51.550;7.208;2023-06-24T00:26:28;18.59;79.12
70830;SHT30;58451;51.550;7.208;2023-06-24T00:28:00;18.55;79.15
70830;SHT30;58451;51.550;7.208;2023-06-24T00:29:32;18.53;79.23
70830;SHT30;58451;51.550;7.208;2023-06-24T00:31:04;18.54;79.37
70830;SHT30;58451;51.550;7.208;2023-06-24T00:32:36;18.56;79.40
70830;SHT30;58451;51.550;7.208;2023-06-24T00:34:08;18.55;79.32
70830;SHT30;58451;51.550;7.208;2023-06-24T00:35:40;18.53;79.27
70830;SHT30;58451;51.550;7.208;2023-06-24T00:37:14;18.48;79.35
70830;SHT30;58451;51.550;7.208;2023-06-24T00:38:46;18.43;79.53
70830;SHT30;58451;51.550;7.208;2023-06-24T00:40:20;18.40;79.60
70830;SHT30;58451;51.550;7.208;2023-06-24T00:41:52;18.39;79.75
70830;SHT30;58451;51.550;7.208;2023-06-24T00:43:25;18.38;79.77
70830;SHT30;58451;51.550;7.208;2023-06-24T00:44:57;18.36;79.82
70830;SHT30;58451;51.550;7.208;2023-06-24T00:46:29;18.37;79.88
70830;SHT30;58451;51.550;7.208;2023-06-24T00:48:03;18.35;79.68
70830;SHT30;58451;51.550;7.208;2023-06-24T00:49:36;18.34;79.92
70830;SHT30;58451;51.550;7.208;2023-06-24T00:51:08;18.32;80.02
70830;SHT30;58451;51.550;7.208;2023-06-24T00:52:40;18.32;79.97
70830;SHT30;58451;51.550;7.208;2023-06-24T00:54:14;18.27;80.03
70830;SHT30;58451;51.550;7.208;2023-06-24T00:55:46;18.22;80.15
70830;SHT30;58451;51.550;7.208;2023-06-24T00:57:19;18.18;80.33
70830;SHT30;58451;51.550;7.208;2023-06-24T00:58:57;18.17;80.37
70830;SHT30;58451;51.550;7.208;2023-06-24T01:00:32;18.18;80.47
70830;SHT30;58451;51.550;7.208;2023-06-24T01:02:05;18.19;80.40
70830;SHT30;58451;51.550;7.208;2023-06-24T01:03:38;18.18;80.30
70830;SHT30;58451;51.550;7.208;2023-06-24T01:05:10;18.16;80.27
70830;SHT30;58451;51.550;7.208;2023-06-24T01:06:42;18.15;80.50
70830;SHT30;58451;51.550;7.208;2023-06-24T01:08:17;18.17;80.50
70830;SHT30;58451;51.550;7.208;2023-06-24T01:09:50;18.15;80.47
70830;SHT30;58451;51.550;7.208;2023-06-24T01:11:23;18.12;80.50
70830;SHT30;58451;51.550;7.208;2023-06-24T01:12:55;18.06;80.70
70830;SHT30;58451;51.550;7.208;2023-06-24T01:14:27;18.02;80.80
70830;SHT30;58451;51.550;7.208;2023-06-24T01:16:00;18.00;80.92
70830;SHT30;58451;51.550;7.208;2023-06-24T01:21:55;17.99;80.63
70830;SHT30;58451;51.550;7.208;2023-06-24T01:29:42;17.98;80.60
70830;SHT30;58451;51.550;7.208;2023-06-24T01:33:17;17.91;80.68
70830;SHT30;58451;51.550;7.208;2023-06-24T01:35:00;17.89;80.57
70830;SHT30;58451;51.550;7.208;2023-06-24T01:36:43;17.85;80.70
70830;SHT30;58451;51.550;7.208;2023-06-24T01:38:35;17.88;80.83
70830;SHT30;58451;51.550;7.208;2023-06-24T01:40:17;17.89;80.88
70830;SHT30;58451;51.550;7.208;2023-06-24T01:42:02;17.89;80.85
70830;SHT30;58451;51.550;7.208;2023-06-24T01:43:41;17.89;80.80
70830;SHT30;58451;51.550;7.208;2023-06-24T01:45:16;17.90;80.85
70830;SHT30;58451;51.550;7.208;2023-06-24T01:47:15;17.85;80.67
70830;SHT30;58451;51.550;7.208;2023-06-24T01:48:54;17.81;80.90
70830;SHT30;58451;51.550;7.208;2023-06-24T01:50:33;17.78;80.95
70830;SHT30;58451;51.550;7.208;2023-06-24T01:52:09;17.77;81.08
70830;SHT30;58451;51.550;7.208;2023-06-24T01:53:43;17.75;81.22
70830;SHT30;58451;51.550;7.208;2023-06-24T01:55:23;17.69;81.23
70830;SHT30;58451;51.550;7.208;2023-06-24T01:57:00;17.62;81.38
70830;SHT30;58451;51.550;7.208;2023-06-24T01:58:37;17.55;81.47
70830;SHT30;58451;51.550;7.208;2023-06-24T02:00:13;17.51;81.55
70830;SHT30;58451;51.550;7.208;2023-06-24T02:01:54;17.47;81.70
70830;SHT30;58451;51.550;7.208;2023-06-24T02:03:28;17.46;81.78
70830;SHT30;58451;51.550;7.208;2023-06-24T02:05:02;17.46;81.83
70830;SHT30;58451;51.550;7.208;2023-06-24T02:06:38;17.47;81.88
70830;SHT30;58451;51.550;7.208;2023-06-24T02:08:13;17.49;82.00
70830;SHT30;58451;51.550;7.208;2023-06-24T02:09:48;17.50;81.93
70830;SHT30;58451;51.550;7.208;2023-06-24T02:11:23;17.52;81.90
70830;SHT30;58451;51.550;7.208;2023-06-24T02:12:58;17.54;81.98
70830;SHT30;58451;51.550;7.208;2023-06-24T02:14:31;17.56;81.78
70830;SHT30;58451;51.550;7.208;2023-06-24T02:16:05;17.56;81.72
70830;SHT30;58451;51.550;7.208;2023-06-24T02:17:40;17.56;81.85
70830;SHT30;58451;51.550;7.208;2023-06-24T02:19:15;17.55;81.85
70830;SHT30;58451;51.550;7.208;2023-06-24T02:20:49;17.55;81.90
70830;SHT30;58451;51.550;7.208;2023-06-24T02:22:23;17.54;81.82
70830;SHT30;58451;51.550;7.208;2023-06-24T02:23:56;17.52;81.90
70830;SHT30;58451;51.550;7.208;2023-06-24T02:25:29;17.53;81.98
70830;SHT30;58451;51.550;7.208;2023-06-24T02:27:03;17.54;82.00
70830;SHT30;58451;51.550;7.208;2023-06-24T02:28:37;17.54;82.02
70830;SHT30;58451;51.550;7.208;2023-06-24T02:30:11;17.53;82.05
70830;SHT30;58451;51.550;7.208;2023-06-24T02:31:44;17.50;82.10
70830;SHT30;58451;51.550;7.208;2023-06-24T02:33:17;17.46;81.92
70830;SHT30;58451;51.550;7.208;2023-06-24T02:34:49;17.43;81.83
70830;SHT30;58451;51.550;7.208;2023-06-24T02:36:21;17.40;81.83
70830;SHT30;58451;51.550;7.208;2023-06-24T02:37:53;17.37;82.05
70830;SHT30;58451;51.550;7.208;2023-06-24T02:39:24;17.36;81.97
70830;SHT30;58451;51.550;7.208;2023-06-24T02:40:57;17.31;82.07
70830;SHT30;58451;51.550;7.208;2023-06-24T02:42:29;17.32;82.25
70830;SHT30;58451;51.550;7.208;2023-06-24T02:44:01;17.30;82.30
70830;SHT30;58451;51.550;7.208;2023-06-24T02:45:33;17.30;82.42
70830;SHT30;58451;51.550;7.208;2023-06-24T02:47:06;17.31;82.43
70830;SHT30;58451;51.550;7.208;2023-06-24T02:48:42;17.30;82.27
70830;SHT30;58451;51.550;7.208;2023-06-24T02:50:17;17.29;82.13
70830;SHT30;58451;51.550;7.208;2023-06-24T02:51:51;17.28;82.23
70830;SHT30;58451;51.550;7.208;2023-06-24T02:53:23;17.28;82.45
70830;SHT30;58451;51.550;7.208;2023-06-24T02:54:58;17.29;82.52
70830;SHT30;58451;51.550;7.208;2023-06-24T02:56:39;17.28;82.55
70830;SHT30;58451;51.550;7.208;2023-06-24T02:58:14;17.28;82.67
70830;SHT30;58451;51.550;7.208;2023-06-24T02:59:46;17.27;82.70
70830;SHT30;58451;51.550;7.208;2023-06-24T03:01:19;17.27;82.75
70830;SHT30;58451;51.550;7.208;2023-06-24T03:02:57;17.26;82.73
70830;SHT30;58451;51.550;7.208;2023-06-24T03:04:30;17.25;82.77
70830;SHT30;58451;51.550;7.208;2023-06-24T03:06:03;17.25;82.83
70830;SHT30;58451;51.550;7.208;2023-06-24T03:07:36;17.25;82.83
70830;SHT30;58451;51.550;7.208;2023-06-24T03:09:10;17.26;82.87
70830;SHT30;58451;51.550;7.208;2023-06-24T03:10:42;17.24;82.87
70830;SHT30;58451;51.550;7.208;2023-06-24T03:12:18;17.25;82.87
70830;SHT30;58451;51.550;7.208;2023-06-24T03:13:50;17.24;82.83
70830;SHT30;58451;51.550;7.208;2023-06-24T03:15:25;17.20;82.80
70830;SHT30;58451;51.550;7.208;2023-06-24T03:17:02;17.20;82.80
70830;SHT30;58451;51.550;7.208;2023-06-24T03:18:34;17.18;82.85
70830;SHT30;58451;51.550;7.208;2023-06-24T03:20:06;17.17;82.85
70830;SHT30;58451;51.550;7.208;2023-06-24T03:21:39;17.15;82.87
70830;SHT30;58451;51.550;7.208;2023-06-24T03:23:14;17.14;82.87
70830;SHT30;58451;51.550;7.208;2023-06-24T03:24:47;17.12;82.92
70830;SHT30;58451;51.550;7.208;2023-06-24T03:26:20;17.13;82.95
70830;SHT30;58451;51.550;7.208;2023-06-24T03:27:52;17.14;82.90
70830;SHT30;58451;51.550;7.208;2023-06-24T03:29:24;17.15;82.87
70830;SHT30;58451;51.550;7.208;2023-06-24T03:31:01;17.13;82.78
70830;SHT30;58451;51.550;7.208;2023-06-24T03:32:33;17.11;82.83
70830;SHT30;58451;51.550;7.208;2023-06-24T03:34:08;17.10;82.73
70830;SHT30;58451;51.550;7.208;2023-06-24T03:35:39;17.09;82.78
70830;SHT30;58451;51.550;7.208;2023-06-24T03:37:12;17.11;82.85
70830;SHT30;58451;51.550;7.208;2023-06-24T03:38:45;17.14;82.90
70830;SHT30;58451;51.550;7.208;2023-06-24T03:40:17;17.15;82.87
70830;SHT30;58451;51.550;7.208;2023-06-24T03:41:49;17.18;82.82
70830;SHT30;58451;51.550;7.208;2023-06-24T03:43:21;17.19;82.75
70830;SHT30;58451;51.550;7.208;2023-06-24T03:44:53;17.22;82.73
70830;SHT30;58451;51.550;7.208;2023-06-24T03:46:25;17.23;82.68
70830;SHT30;58451;51.550;7.208;2023-06-24T03:47:57;17.24;82.58
70830;SHT30;58451;51.550;7.208;2023-06-24T03:49:29;17.25;82.52
70830;SHT30;58451;51.550;7.208;2023-06-24T03:51:01;17.24;82.43
70830;SHT30;58451;51.550;7.208;2023-06-24T03:52:33;17.27;82.43
70830;SHT30;58451;51.550;7.208;2023-06-24T03:54:05;17.28;82.33
70830;SHT30;58451;51.550;7.208;2023-06-24T03:55:37;17.27;82.25
70830;SHT30;58451;51.550;7.208;2023-06-24T03:57:09;17.28;82.22
70830;SHT30;58451;51.550;7.208;2023-06-24T03:58:41;17.27;82.13
70830;SHT30;58451;51.550;7.208;2023-06-24T04:00:12;17.25;82.23
70830;SHT30;58451;51.550;7.208;2023-06-24T04:01:49;17.24;82.13
70830;SHT30;58451;51.550;7.208;2023-06-24T04:03:24;17.30;82.22
70830;SHT30;58451;51.550;7.208;2023-06-24T04:05:00;17.36;82.10
70830;SHT30;58451;51.550;7.208;2023-06-24T04:06:31;17.44;82.03
70830;SHT30;58451;51.550;7.208;2023-06-24T04:08:03;17.50;81.98
70830;SHT30;58451;51.550;7.208;2023-06-24T04:09:37;17.55;81.95
70830;SHT30;58451;51.550;7.208;2023-06-24T04:11:10;17.58;81.90
70830;SHT30;58451;51.550;7.208;2023-06-24T04:12:43;17.65;81.95
70830;SHT30;58451;51.550;7.208;2023-06-24T04:14:16;17.73;81.95
70830;SHT30;58451;51.550;7.208;2023-06-24T04:15:47;17.80;81.83
70830;SHT30;58451;51.550;7.208;2023-06-24T04:17:19;17.86;81.77
70830;SHT30;58451;51.550;7.208;2023-06-24T04:18:51;17.93;81.72
70830;SHT30;58451;51.550;7.208;2023-06-24T04:20:23;18.01;81.77
70830;SHT30;58451;51.550;7.208;2023-06-24T04:21:55;18.09;81.78
70830;SHT30;58451;51.550;7.208;2023-06-24T04:23:27;18.13;81.70
70830;SHT30;58451;51.550;7.208;2023-06-24T04:24:59;18.21;81.43
70830;SHT30;58451;51.550;7.208;2023-06-24T04:26:31;18.31;81.23
70830;SHT30;58451;51.550;7.208;2023-06-24T04:28:03;18.39;81.28
70830;SHT30;58451;51.550;7.208;2023-06-24T04:29:36;18.50;81.33
70830;SHT30;58451;51.550;7.208;2023-06-24T04:31:08;18.61;81.23
70830;SHT30;58451;51.550;7.208;2023-06-24T04:32:42;18.73;81.07
70830;SHT30;58451;51.550;7.208;2023-06-24T04:34:15;18.84;80.92
70830;SHT30;58451;51.550;7.208;2023-06-24T04:35:47;18.94;80.70
70830;SHT30;58451;51.550;7.208;2023-06-24T04:37:18;19.02;80.52
70830;SHT30;58451;51.550;7.208;2023-06-24T04:38:51;19.05;80.25
70830;SHT30;58451;51.550;7.208;2023-06-24T04:40:23;19.08;80.07
70830;SHT30;58451;51.550;7.208;2023-06-24T04:41:55;19.11;79.95
70830;SHT30;58451;51.550;7.208;2023-06-24T04:43:27;19.14;79.77
70830;SHT30;58451;51.550;7.208;2023-06-24T04:45:00;19.17;79.67
70830;SHT30;58451;51.550;7.208;2023-06-24T04:46:32;19.22;79.50
70830;SHT30;58451;51.550;7.208;2023-06-24T04:48:05;19.26;79.33
70830;SHT30;58451;51.550;7.208;2023-06-24T04:49:37;19.29;79.12
70830;SHT30;58451;51.550;7.208;2023-06-24T04:51:09;19.33;78.90
70830;SHT30;58451;51.550;7.208;2023-06-24T04:52:41;19.38;78.78
70830;SHT30;58451;51.550;7.208;2023-06-24T04:54:13;19.43;78.60
70830;SHT30;58451;51.550;7.208;2023-06-24T04:55:45;19.48;78.48
70830;SHT30;58451;51.550;7.208;2023-06-24T04:57:24;19.50;78.32
70830;SHT30;58451;51.550;7.208;2023-06-24T04:59:03;19.52;78.10
70830;SHT30;58451;51.550;7.208;2023-06-24T05:00:35;19.51;77.37
70830;SHT30;58451;51.550;7.208;2023-06-24T05:02:06;19.55;77.38
70830;SHT30;58451;51.550;7.208;2023-06-24T05:03:38;19.55;77.50
70830;SHT30;58451;51.550;7.208;2023-06-24T05:05:10;19.57;77.40
70830;SHT30;58451;51.550;7.208;2023-06-24T05:06:42;19.58;77.35
70830;SHT30;58451;51.550;7.208;2023-06-24T05:08:14;19.61;77.27
70830;SHT30;58451;51.550;7.208;2023-06-24T05:09:49;19.64;77.07
70830;SHT30;58451;51.550;7.208;2023-06-24T05:11:22;19.70;76.92
70830;SHT30;58451;51.550;7.208;2023-06-24T05:12:54;19.77;76.65
70830;SHT30;58451;51.550;7.208;2023-06-24T05:14:26;19.86;76.48
70830;SHT30;58451;51.550;7.208;2023-06-24T05:15:58;19.95;76.17
70830;SHT30;58451;51.550;7.208;2023-06-24T05:17:29;20.06;75.87
70830;SHT30;58451;51.550;7.208;2023-06-24T05:19:01;20.17;75.82
70830;SHT30;58451;51.550;7.208;2023-06-24T05:20:33;20.27;75.67
70830;SHT30;58451;51.550;7.208;2023-06-24T05:22:05;20.40;75.30
70830;SHT30;58451;51.550;7.208;2023-06-24T05:23:37;20.48;74.98
70830;SHT30;58451;51.550;7.208;2023-06-24T05:25:09;20.55;74.88
70830;SHT30;58451;51.550;7.208;2023-06-24T05:26:40;20.60;74.57
70830;SHT30;58451;51.550;7.208;2023-06-24T05:28:12;20.65;74.35
70830;SHT30;58451;51.550;7.208;2023-06-24T05:29:44;20.73;74.08
70830;SHT30;58451;51.550;7.208;2023-06-24T05:31:16;20.80;73.98
70830;SHT30;58451;51.550;7.208;2023-06-24T05:32:48;20.89;73.75
70830;SHT30;58451;51.550;7.208;2023-06-24T05:34:20;20.95;73.17
70830;SHT30;58451;51.550;7.208;2023-06-24T05:35:52;20.99;73.00
70830;SHT30;58451;51.550;7.208;2023-06-24T05:37:23;21.02;72.72
70830;SHT30;58451;51.550;7.208;2023-06-24T05:38:55;21.08;72.47
70830;SHT30;58451;51.550;7.208;2023-06-24T05:40:27;21.12;72.10
70830;SHT30;58451;51.550;7.208;2023-06-24T05:41:59;21.17;71.98
70830;SHT30;58451;51.550;7.208;2023-06-24T05:43:31;21.25;71.03
70830;SHT30;58451;51.550;7.208;2023-06-24T05:45:02;21.30;69.42
70830;SHT30;58451;51.550;7.208;2023-06-24T05:46:35;21.32;68.40
70830;SHT30;58451;51.550;7.208;2023-06-24T05:48:07;21.36;69.58
70830;SHT30;58451;51.550;7.208;2023-06-24T05:49:39;21.42;70.07
70830;SHT30;58451;51.550;7.208;2023-06-24T05:51:11;21.51;70.12
70830;SHT30;58451;51.550;7.208;2023-06-24T05:52:43;21.64;70.08
70830;SHT30;58451;51.550;7.208;2023-06-24T05:54:14;21.72;68.83
70830;SHT30;58451;51.550;7.208;2023-06-24T05:55:46;21.79;68.23
70830;SHT30;58451;51.550;7.208;2023-06-24T05:57:18;21.86;68.73
70830;SHT30;58451;51.550;7.208;2023-06-24T05:58:50;21.94;68.15
70830;SHT30;58451;51.550;7.208;2023-06-24T06:00:22;22.05;68.43
70830;SHT30;58451;51.550;7.208;2023-06-24T06:01:53;22.18;68.53
70830;SHT30;58451;51.550;7.208;2023-06-24T06:03:25;22.36;68.25
70830;SHT30;58451;51.550;7.208;2023-06-24T06:04:57;22.49;68.27
70830;SHT30;58451;51.550;7.208;2023-06-24T06:06:29;22.60;67.92
70830;SHT30;58451;51.550;7.208;2023-06-24T06:08:01;22.66;65.63
70830;SHT30;58451;51.550;7.208;2023-06-24T06:09:33;22.69;64.88
70830;SHT30;58451;51.550;7.208;2023-06-24T06:11:04;22.70;65.33
70830;SHT30;58451;51.550;7.208;2023-06-24T06:12:36;22.67;63.83
70830;SHT30;58451;51.550;7.208;2023-06-24T06:14:08;22.66;65.13
70830;SHT30;58451;51.550;7.208;2023-06-24T06:15:40;22.65;65.85
70830;SHT30;58451;51.550;7.208;2023-06-24T06:17:12;22.65;65.73
70830;SHT30;58451;51.550;7.208;2023-06-24T06:18:45;22.68;65.73
70830;SHT30;58451;51.550;7.208;2023-06-24T06:20:17;22.73;65.58
70830;SHT30;58451;51.550;7.208;2023-06-24T06:21:49;22.76;64.40
70830;SHT30;58451;51.550;7.208;2023-06-24T06:23:21;22.83;63.98
70830;SHT30;58451;51.550;7.208;2023-06-24T06:24:53;22.91;64.23
70830;SHT30;58451;51.550;7.208;2023-06-24T06:26:25;23.02;64.52
70830;SHT30;58451;51.550;7.208;2023-06-24T06:27:57;23.12;62.82
70830;SHT30;58451;51.550;7.208;2023-06-24T06:29:29;23.20;61.23
70830;SHT30;58451;51.550;7.208;2023-06-24T06:31:01;23.28;60.02
70830;SHT30;58451;51.550;7.208;2023-06-24T06:32:33;23.41;60.38
70830;SHT30;58451;51.550;7.208;2023-06-24T06:34:05;23.50;58.23
70830;SHT30;58451;51.550;7.208;2023-06-24T06:35:37;23.69;60.67
70830;SHT30;58451;51.550;7.208;2023-06-24T06:37:08;23.88;60.03
70830;SHT30;58451;51.550;7.208;2023-06-24T06:38:40;24.02;57.72
70830;SHT30;58451;51.550;7.208;2023-06-24T06:40:12;24.07;57.08
70830;SHT30;58451;51.550;7.208;2023-06-24T06:41:44;24.09;56.12
70830;SHT30;58451;51.550;7.208;2023-06-24T06:43:19;24.14;58.68
70830;SHT30;58451;51.550;7.208;2023-06-24T06:44:52;24.19;57.72
70830;SHT30;58451;51.550;7.208;2023-06-24T06:46:24;24.16;55.80
70830;SHT30;58451;51.550;7.208;2023-06-24T06:47:56;24.14;56.73
70830;SHT30;58451;51.550;7.208;2023-06-24T06:49:28;24.14;57.58
70830;SHT30;58451;51.550;7.208;2023-06-24T06:51:00;24.13;56.53
70830;SHT30;58451;51.550;7.208;2023-06-24T06:52:32;24.13;56.98
70830;SHT30;58451;51.550;7.208;2023-06-24T06:54:04;24.11;58.07
70830;SHT30;58451;51.550;7.208;2023-06-24T06:55:36;24.11;58.45
70830;SHT30;58451;51.550;7.208;2023-06-24T06:57:11;24.19;56.75
70830;SHT30;58451;51.550;7.208;2023-06-24T06:58:43;24.25;57.33
70830;SHT30;58451;51.550;7.208;2023-06-24T07:00:15;24.33;57.77
70830;SHT30;58451;51.550;7.208;2023-06-24T07:01:48;24.38;56.20
70830;SHT30;58451;51.550;7.208;2023-06-24T07:03:19;24.44;57.28
70830;SHT30;58451;51.550;7.208;2023-06-24T07:04:51;24.47;56.33
70830;SHT30;58451;51.550;7.208;2023-06-24T07:06:23;24.42;55.38
70830;SHT30;58451;51.550;7.208;2023-06-24T07:07:56;24.41;55.18
70830;SHT30;58451;51.550;7.208;2023-06-24T07:09:28;24.40;55.57
70830;SHT30;58451;51.550;7.208;2023-06-24T07:11:00;24.44;56.87
70830;SHT30;58451;51.550;7.208;2023-06-24T07:12:32;24.48;56.38
70830;SHT30;58451;51.550;7.208;2023-06-24T07:14:04;24.52;56.78
70830;SHT30;58451;51.550;7.208;2023-06-24T07:15:35;24.56;57.12
70830;SHT30;58451;51.550;7.208;2023-06-24T07:17:07;24.60;55.75
70830;SHT30;58451;51.550;7.208;2023-06-24T07:18:39;24.59;55.57
70830;SHT30;58451;51.550;7.208;2023-06-24T07:20:11;24.60;57.02
70830;SHT30;58451;51.550;7.208;2023-06-24T07:21:43;24.59;57.32
70830;SHT30;58451;51.550;7.208;2023-06-24T07:23:15;24.65;56.80
70830;SHT30;58451;51.550;7.208;2023-06-24T07:24:47;24.76;57.03
70830;SHT30;58451;51.550;7.208;2023-06-24T07:26:19;24.80;55.98
70830;SHT30;58451;51.550;7.208;2023-06-24T07:27:51;24.81;55.63
70830;SHT30;58451;51.550;7.208;2023-06-24T07:29:22;24.80;55.35
70830;SHT30;58451;51.550;7.208;2023-06-24T07:30:54;24.86;56.27
70830;SHT30;58451;51.550;7.208;2023-06-24T07:32:26;24.86;54.97
70830;SHT30;58451;51.550;7.208;2023-06-24T07:33:58;24.90;55.53
70830;SHT30;58451;51.550;7.208;2023-06-24T07:35:30;25.00;56.30
70830;SHT30;58451;51.550;7.208;2023-06-24T07:37:05;25.11;56.40
70830;SHT30;58451;51.550;7.208;2023-06-24T07:38:54;25.23;56.42
70830;SHT30;58451;51.550;7.208;2023-06-24T07:40:25;25.29;55.57
70830;SHT30;58451;51.550;7.208;2023-06-24T07:41:57;25.31;54.85
70830;SHT30;58451;51.550;7.208;2023-06-24T07:43:29;25.25;54.67
70830;SHT30;58451;51.550;7.208;2023-06-24T07:45:02;25.14;54.97
70830;SHT30;58451;51.550;7.208;2023-06-24T07:46:34;25.17;55.50
70830;SHT30;58451;51.550;7.208;2023-06-24T07:48:06;25.23;55.80
70830;SHT30;58451;51.550;7.208;2023-06-24T07:49:38;25.25;54.87
70830;SHT30;58451;51.550;7.208;2023-06-24T07:51:10;25.27;55.02
70830;SHT30;58451;51.550;7.208;2023-06-24T07:52:42;25.25;54.78
70830;SHT30;58451;51.550;7.208;2023-06-24T07:54:14;25.21;55.08
70830;SHT30;58451;51.550;7.208;2023-06-24T07:55:46;25.28;55.60
70830;SHT30;58451;51.550;7.208;2023-06-24T07:57:18;25.37;56.23
70830;SHT30;58451;51.550;7.208;2023-06-24T07:58:50;25.49;56.10
70830;SHT30;58451;51.550;7.208;2023-06-24T08:00:22;25.60;56.17
70830;SHT30;58451;51.550;7.208;2023-06-24T08:01:53;25.70;55.67
70830;SHT30;58451;51.550;7.208;2023-06-24T08:03:25;25.64;54.47
70830;SHT30;58451;51.550;7.208;2023-06-24T08:04:57;25.71;55.43
70830;SHT30;58451;51.550;7.208;2023-06-24T08:06:29;25.73;55.70
70830;SHT30;58451;51.550;7.208;2023-06-24T08:08:01;25.66;55.33
70830;SHT30;58451;51.550;7.208;2023-06-24T08:09:33;25.60;55.00
70830;SHT30;58451;51.550;7.208;2023-06-24T08:11:05;25.64;55.15
70830;SHT30;58451;51.550;7.208;2023-06-24T08:12:37;25.71;55.67
70830;SHT30;58451;51.550;7.208;2023-06-24T08:14:09;25.79;55.38
70830;SHT30;58451;51.550;7.208;2023-06-24T08:15:41;25.86;55.60
70830;SHT30;58451;51.550;7.208;2023-06-24T08:17:13;25.91;55.13
70830;SHT30;58451;51.550;7.208;2023-06-24T08:18:45;25.90;55.25
70830;SHT30;58451;51.550;7.208;2023-06-24T08:20:17;25.95;55.62
70830;SHT30;58451;51.550;7.208;2023-06-24T08:21:49;25.98;55.18
70830;SHT30;58451;51.550;7.208;2023-06-24T08:23:21;25.95;54.67
70830;SHT30;58451;51.550;7.208;2023-06-24T08:24:52;25.98;54.73
70830;SHT30;58451;51.550;7.208;2023-06-24T08:26:25;26.01;54.70
70830;SHT30;58451;51.550;7.208;2023-06-24T08:27:56;26.00;54.42
70830;SHT30;58451;51.550;7.208;2023-06-24T08:29:28;26.02;53.98
70830;SHT30;58451;51.550;7.208;2023-06-24T08:31:00;25.99;53.82
70830;SHT30;58451;51.550;7.208;2023-06-24T08:32:32;25.96;54.00
70830;SHT30;58451;51.550;7.208;2023-06-24T08:34:05;25.94;53.62
70830;SHT30;58451;51.550;7.208;2023-06-24T08:35:38;25.93;53.38
70830;SHT30;58451;51.550;7.208;2023-06-24T08:37:10;25.95;53.53
70830;SHT30;58451;51.550;7.208;2023-06-24T08:38:42;25.98;53.68
70830;SHT30;58451;51.550;7.208;2023-06-24T08:40:13;25.95;53.50
70830;SHT30;58451;51.550;7.208;2023-06-24T08:41:45;25.96;53.68
70830;SHT30;58451;51.550;7.208;2023-06-24T08:43:17;25.94;53.88
70830;SHT30;58451;51.550;7.208;2023-06-24T08:44:49;25.94;54.30
70830;SHT30;58451;51.550;7.208;2023-06-24T08:46:21;26.05;54.57
70830;SHT30;58451;51.550;7.208;2023-06-24T08:47:56;26.14;54.63
70830;SHT30;58451;51.550;7.208;2023-06-24T08:49:30;26.19;54.05
70830;SHT30;58451;51.550;7.208;2023-06-24T08:51:04;26.21;53.50
70830;SHT30;58451;51.550;7.208;2023-06-24T08:52:38;26.21;53.60
70830;SHT30;58451;51.550;7.208;2023-06-24T08:54:20;26.20;53.30
70830;SHT30;58451;51.550;7.208;2023-06-24T08:55:54;26.25;53.68
70830;SHT30;58451;51.550;7.208;2023-06-24T08:57:28;26.32;53.60
70830;SHT30;58451;51.550;7.208;2023-06-24T08:59:00;26.35;52.98
70830;SHT30;58451;51.550;7.208;2023-06-24T09:00:32;26.39;52.30
70830;SHT30;58451;51.550;7.208;2023-06-24T09:02:05;26.42;51.77
70830;SHT30;58451;51.550;7.208;2023-06-24T09:03:38;26.45;50.58
70830;SHT30;58451;51.550;7.208;2023-06-24T09:05:10;26.41;50.32
70830;SHT30;58451;51.550;7.208;2023-06-24T09:06:42;26.39;51.05
70830;SHT30;58451;51.550;7.208;2023-06-24T09:08:14;26.45;51.57
70830;SHT30;58451;51.550;7.208;2023-06-24T09:09:47;26.54;50.60
70830;SHT30;58451;51.550;7.208;2023-06-24T09:11:22;26.56;50.08
70830;SHT30;58451;51.550;7.208;2023-06-24T09:12:55;26.58;49.78
70830;SHT30;58451;51.550;7.208;2023-06-24T09:14:29;26.58;48.93
70830;SHT30;58451;51.550;7.208;2023-06-24T09:16:11;26.57;48.52
70830;SHT30;58451;51.550;7.208;2023-06-24T09:17:45;26.54;48.55
70830;SHT30;58451;51.550;7.208;2023-06-24T09:19:24;26.54;48.77
70830;SHT30;58451;51.550;7.208;2023-06-24T09:21:01;26.59;49.13
70830;SHT30;58451;51.550;7.208;2023-06-24T09:22:34;26.62;47.98
70830;SHT30;58451;51.550;7.208;2023-06-24T09:24:06;26.62;47.67
70830;SHT30;58451;51.550;7.208;2023-06-24T09:25:38;26.65;48.05
70830;SHT30;58451;51.550;7.208;2023-06-24T09:27:10;26.69;47.88
70830;SHT30;58451;51.550;7.208;2023-06-24T09:28:48;26.72;47.88
70830;SHT30;58451;51.550;7.208;2023-06-24T09:31:56;26.81;47.40
70830;SHT30;58451;51.550;7.208;2023-06-24T09:33:30;26.84;47.58
70830;SHT30;58451;51.550;7.208;2023-06-24T09:35:03;26.86;47.57
70830;SHT30;58451;51.550;7.208;2023-06-24T09:36:35;26.89;46.80
70830;SHT30;58451;51.550;7.208;2023-06-24T09:38:07;26.86;46.95
70830;SHT30;58451;51.550;7.208;2023-06-24T09:39:39;26.84;46.55
70830;SHT30;58451;51.550;7.208;2023-06-24T09:41:11;26.95;46.97
70830;SHT30;58451;51.550;7.208;2023-06-24T09:42:54;27.04;46.95
70830;SHT30;58451;51.550;7.208;2023-06-24T09:44:28;27.08;45.65
70830;SHT30;58451;51.550;7.208;2023-06-24T09:46:01;27.11;45.97
70830;SHT30;58451;51.550;7.208;2023-06-24T09:47:33;27.15;45.73
70830;SHT30;58451;51.550;7.208;2023-06-24T09:49:05;27.16;44.88
70830;SHT30;58451;51.550;7.208;2023-06-24T09:50:37;27.16;44.70
70830;SHT30;58451;51.550;7.208;2023-06-24T09:52:09;27.20;44.28
70830;SHT30;58451;51.550;7.208;2023-06-24T09:53:47;27.25;44.62
70830;SHT30;58451;51.550;7.208;2023-06-24T09:55:19;27.24;44.48
70830;SHT30;58451;51.550;7.208;2023-06-24T09:56:51;27.29;44.70
70830;SHT30;58451;51.550;7.208;2023-06-24T09:58:25;27.33;44.40
70830;SHT30;58451;51.550;7.208;2023-06-24T09:59:59;27.34;44.17
70830;SHT30;58451;51.550;7.208;2023-06-24T10:01:37;27.38;44.88